sensor_id;sensor_type;location;lat;lon;timestamp;pressure;altitude;pressure_sealevel;temperature
68027;BMP180;54819;48.030;14.710;2022-12-07T00:01:39;97385.60;;;6.20
68027;BMP180;54819;48.030;14.710;2022-12-07T00:04:10;97382.00;;;6.20
68027;BMP180;54819;48.030;14.710;2022-12-07T00:06:41;97382.40;;;6.20
68027;BMP180;54819;48.030;14.710;2022-12-07T00:09:14;97387.40;;;6.20
68027;BMP180;54819;48.030;14.710;2022-12-07T00:11:43;97384.20;;;6.20
68027;BMP180;54819;48.030;14.710;2022-12-07T00:14:14;97381.00;;;6.20
68027;BMP180;54819;48.030;14.710;2022-12-07T00:16:42;97375.60;;;6.20
68027;BMP180;54819;48.030;14.710;2022-12-07T00:19:12;97375.40;;;6.20
68027;BMP180;54819;48.030;14.710;2022-12-07T00:21:40;97372.40;;;6.20
68027;BMP180;54819;48.030;14.710;2022-12-07T00:24:07;97371.60;;;6.20
68027;BMP180;54819;48.030;14.710;2022-12-07T00:26:37;97370.00;;;6.20
68027;BMP180;54819;48.030;14.710;2022-12-07T00:29:11;97373.00;;;6.18
68027;BMP180;54819;48.030;14.710;2022-12-07T00:31:39;97364.80;;;6.18
68027;BMP180;54819;48.030;14.710;2022-12-07T00:34:12;97365.60;;;6.12
68027;BMP180;54819;48.030;14.710;2022-12-07T00:36:40;97365.60;;;6.10
68027;BMP180;54819;48.030;14.710;2022-12-07T00:39:06;97363.60;;;6.18
68027;BMP180;54819;48.030;14.710;2022-12-07T00:41:33;97364.00;;;6.20
68027;BMP180;54819;48.030;14.710;2022-12-07T00:44:00;97362.00;;;6.12
68027;BMP180;54819;48.030;14.710;2022-12-07T00:46:27;97361.80;;;6.10
68027;BMP180;54819;48.030;14.710;2022-12-07T00:48:55;97363.80;;;6.14
68027;BMP180;54819;48.030;14.710;2022-12-07T00:51:24;97364.60;;;6.18
68027;BMP180;54819;48.030;14.710;2022-12-07T00:53:52;97366.60;;;6.20
68027;BMP180;54819;48.030;14.710;2022-12-07T00:56:26;97371.60;;;6.20
68027;BMP180;54819;48.030;14.710;2022-12-07T00:59:00;97370.60;;;6.20
68027;BMP180;54819;48.030;14.710;2022-12-07T01:01:35;97374.20;;;6.20
68027;BMP180;54819;48.030;14.710;2022-12-07T01:04:03;97373.40;;;6.20
68027;BMP180;54819;48.030;14.710;2022-12-07T01:06:31;97373.20;;;6.20
68027;BMP180;54819;48.030;14.710;2022-12-07T01:08:59;97378.00;;;6.18
68027;BMP180;54819;48.030;14.710;2022-12-07T01:11:29;97372.00;;;6.12
68027;BMP180;54819;48.030;14.710;2022-12-07T01:13:58;97373.40;;;6.10
68027;BMP180;54819;48.030;14.710;2022-12-07T01:16:29;97375.40;;;6.10
68027;BMP180;54819;48.030;14.710;2022-12-07T01:18:59;97378.20;;;6.10
68027;BMP180;54819;48.030;14.710;2022-12-07T01:21:33;97377.80;;;6.10
68027;BMP180;54819;48.030;14.710;2022-12-07T01:24:06;97375.60;;;6.10
68027;BMP180;54819;48.030;14.710;2022-12-07T01:26:33;97377.20;;;6.10
68027;BMP180;54819;48.030;14.710;2022-12-07T01:29:00;97382.00;;;6.06
68027;BMP180;54819;48.030;14.710;2022-12-07T01:31:28;97377.20;;;6.00
68027;BMP180;54819;48.030;14.710;2022-12-07T01:33:58;97376.00;;;6.00
68027;BMP180;54819;48.030;14.710;2022-12-07T01:36:31;97378.40;;;6.00
68027;BMP180;54819;48.030;14.710;2022-12-07T01:39:03;97377.80;;;6.00
68027;BMP180;54819;48.030;14.710;2022-12-07T01:41:34;97376.00;;;6.00
68027;BMP180;54819;48.030;14.710;2022-12-07T01:44:23;97375.20;;;6.00
68027;BMP180;54819;48.030;14.710;2022-12-07T01:47:01;97375.20;;;6.00
68027;BMP180;54819;48.030;14.710;2022-12-07T01:49:46;97371.00;;;6.00
68027;BMP180;54819;48.030;14.710;2022-12-07T01:52:31;97369.40;;;6.00
68027;BMP180;54819;48.030;14.710;2022-12-07T01:55:12;97369.20;;;6.00
68027;BMP180;54819;48.030;14.710;2022-12-07T01:57:47;97370.80;;;6.00
68027;BMP180;54819;48.030;14.710;2022-12-07T02:00:15;97367.20;;;6.00
68027;BMP180;54819;48.030;14.710;2022-12-07T02:05:24;97368.80;;;6.00
68027;BMP180;54819;48.030;14.710;2022-12-07T02:07:55;97366.40;;;6.00
68027;BMP180;54819;48.030;14.710;2022-12-07T02:10:27;97362.40;;;6.00
68027;BMP180;54819;48.030;14.710;2022-12-07T02:13:16;97363.80;;;6.00
68027;BMP180;54819;48.030;14.710;2022-12-07T02:21:48;97360.80;;;6.00
68027;BMP180;54819;48.030;14.710;2022-12-07T02:28:06;97361.80;;;6.00
68027;BMP180;54819;48.030;14.710;2022-12-07T02:30:41;97357.60;;;6.00
68027;BMP180;54819;48.030;14.710;2022-12-07T02:33:24;97355.40;;;6.00
68027;BMP180;54819;48.030;14.710;2022-12-07T02:36:04;97352.80;;;6.00
68027;BMP180;54819;48.030;14.710;2022-12-07T02:38:59;97349.20;;;6.00
68027;BMP180;54819;48.030;14.710;2022-12-07T02:41:36;97351.60;;;6.00
68027;BMP180;54819;48.030;14.710;2022-12-07T02:44:10;97352.00;;;6.00
68027;BMP180;54819;48.030;14.710;2022-12-07T02:46:49;97348.20;;;6.00
68027;BMP180;54819;48.030;14.710;2022-12-07T02:49:18;97349.00;;;6.00
68027;BMP180;54819;48.030;14.710;2022-12-07T02:51:46;97349.20;;;6.00
68027;BMP180;54819;48.030;14.710;2022-12-07T02:54:17;97348.80;;;6.00
68027;BMP180;54819;48.030;14.710;2022-12-07T02:56:52;97348.20;;;6.00
68027;BMP180;54819;48.030;14.710;2022-12-07T03:02:24;97350.40;;;6.00
68027;BMP180;54819;48.030;14.710;2022-12-07T03:05:39;97349.40;;;6.00
68027;BMP180;54819;48.030;14.710;2022-12-07T03:14:07;97342.80;;;6.00
68027;BMP180;54819;48.030;14.710;2022-12-07T03:17:06;97342.60;;;6.00
68027;BMP180;54819;48.030;14.710;2022-12-07T03:19:36;97338.60;;;6.08
68027;BMP180;54819;48.030;14.710;2022-12-07T03:22:08;97337.20;;;6.08
68027;BMP180;54819;48.030;14.710;2022-12-07T03:25:11;97339.20;;;6.08
68027;BMP180;54819;48.030;14.710;2022-12-07T03:28:07;97337.00;;;6.10
68027;BMP180;54819;48.030;14.710;2022-12-07T03:31:06;97339.00;;;6.10
68027;BMP180;54819;48.030;14.710;2022-12-07T03:33:48;97338.40;;;6.10
68027;BMP180;54819;48.030;14.710;2022-12-07T03:36:53;97332.40;;;6.10
68027;BMP180;54819;48.030;14.710;2022-12-07T03:40:03;97334.80;;;6.10
68027;BMP180;54819;48.030;14.710;2022-12-07T03:42:34;97331.40;;;6.10
68027;BMP180;54819;48.030;14.710;2022-12-07T03:45:03;97333.20;;;6.10
68027;BMP180;54819;48.030;14.710;2022-12-07T03:50:29;97335.00;;;6.12
68027;BMP180;54819;48.030;14.710;2022-12-07T03:53:34;97337.80;;;6.10
68027;BMP180;54819;48.030;14.710;2022-12-07T03:56:02;97339.80;;;6.12
68027;BMP180;54819;48.030;14.710;2022-12-07T03:58:30;97335.20;;;6.10
68027;BMP180;54819;48.030;14.710;2022-12-07T04:00:58;97341.80;;;6.10
68027;BMP180;54819;48.030;14.710;2022-12-07T04:03:25;97346.00;;;6.10
68027;BMP180;54819;48.030;14.710;2022-12-07T04:05:52;97348.00;;;6.10
68027;BMP180;54819;48.030;14.710;2022-12-07T04:08:20;97348.20;;;6.10
68027;BMP180;54819;48.030;14.710;2022-12-07T04:10:46;97343.80;;;6.02
68027;BMP180;54819;48.030;14.710;2022-12-07T04:13:13;97346.60;;;6.00
68027;BMP180;54819;48.030;14.710;2022-12-07T04:15:40;97347.20;;;6.00
68027;BMP180;54819;48.030;14.710;2022-12-07T04:18:07;97343.60;;;5.90
68027;BMP180;54819;48.030;14.710;2022-12-07T04:20:34;97347.00;;;5.80
68027;BMP180;54819;48.030;14.710;2022-12-07T04:23:01;97347.40;;;5.70
68027;BMP180;54819;48.030;14.710;2022-12-07T04:25:28;97348.40;;;5.70
68027;BMP180;54819;48.030;14.710;2022-12-07T04:27:55;97352.40;;;5.60
68027;BMP180;54819;48.030;14.710;2022-12-07T04:30:21;97351.00;;;5.60
68027;BMP180;54819;48.030;14.710;2022-12-07T04:32:48;97348.20;;;5.58
68027;BMP180;54819;48.030;14.710;2022-12-07T04:35:15;97349.00;;;5.50
68027;BMP180;54819;48.030;14.710;2022-12-07T04:37:42;97349.20;;;5.50
68027;BMP180;54819;48.030;14.710;2022-12-07T04:40:09;97349.40;;;5.50
68027;BMP180;54819;48.030;14.710;2022-12-07T04:42:38;97344.60;;;5.48
68027;BMP180;54819;48.030;14.710;2022-12-07T04:45:06;97342.60;;;5.42
68027;BMP180;54819;48.030;14.710;2022-12-07T04:47:33;97345.40;;;5.42
68027;BMP180;54819;48.030;14.710;2022-12-07T04:50:00;97345.80;;;5.42
68027;BMP180;54819;48.030;14.710;2022-12-07T04:52:27;97341.60;;;5.50
68027;BMP180;54819;48.030;14.710;2022-12-07T04:54:54;97344.40;;;5.50
68027;BMP180;54819;48.030;14.710;2022-12-07T04:57:21;97349.20;;;5.50
68027;BMP180;54819;48.030;14.710;2022-12-07T04:59:48;97348.00;;;5.50
68027;BMP180;54819;48.030;14.710;2022-12-07T05:02:14;97351.00;;;5.50
68027;BMP180;54819;48.030;14.710;2022-12-07T05:04:41;97347.20;;;5.50
68027;BMP180;54819;48.030;14.710;2022-12-07T05:07:08;97347.40;;;5.50
68027;BMP180;54819;48.030;14.710;2022-12-07T05:09:35;97343.40;;;5.40
68027;BMP180;54819;48.030;14.710;2022-12-07T05:12:02;97346.80;;;5.40
68027;BMP180;54819;48.030;14.710;2022-12-07T05:14:29;97348.00;;;5.30
68027;BMP180;54819;48.030;14.710;2022-12-07T05:16:56;97350.80;;;5.28
68027;BMP180;54819;48.030;14.710;2022-12-07T05:19:23;97351.00;;;5.20
68027;BMP180;54819;48.030;14.710;2022-12-07T05:21:50;97345.80;;;5.20
68027;BMP180;54819;48.030;14.710;2022-12-07T05:24:17;97346.80;;;5.10
68027;BMP180;54819;48.030;14.710;2022-12-07T05:26:45;97344.80;;;5.10
68027;BMP180;54819;48.030;14.710;2022-12-07T05:29:15;97346.00;;;5.06
68027;BMP180;54819;48.030;14.710;2022-12-07T05:31:43;97346.20;;;5.02
68027;BMP180;54819;48.030;14.710;2022-12-07T05:34:11;97348.80;;;5.08
68027;BMP180;54819;48.030;14.710;2022-12-07T05:36:38;97347.60;;;5.10
68027;BMP180;54819;48.030;14.710;2022-12-07T05:39:05;97352.00;;;5.10
68027;BMP180;54819;48.030;14.710;2022-12-07T05:41:32;97357.20;;;5.10
68027;BMP180;54819;48.030;14.710;2022-12-07T05:44:18;97357.80;;;5.10
68027;BMP180;54819;48.030;14.710;2022-12-07T05:46:44;97355.60;;;5.10
68027;BMP180;54819;48.030;14.710;2022-12-07T05:49:11;97351.40;;;5.10
68027;BMP180;54819;48.030;14.710;2022-12-07T05:51:38;97350.40;;;5.10
68027;BMP180;54819;48.030;14.710;2022-12-07T05:54:05;97356.80;;;5.10
68027;BMP180;54819;48.030;14.710;2022-12-07T05:56:32;97359.40;;;5.10
68027;BMP180;54819;48.030;14.710;2022-12-07T05:58:59;97362.20;;;5.12
68027;BMP180;54819;48.030;14.710;2022-12-07T06:01:44;97368.00;;;5.20
68027;BMP180;54819;48.030;14.710;2022-12-07T06:04:11;97368.40;;;5.20
68027;BMP180;54819;48.030;14.710;2022-12-07T06:06:38;97364.80;;;5.20
68027;BMP180;54819;48.030;14.710;2022-12-07T06:09:05;97370.00;;;5.20
68027;BMP180;54819;48.030;14.710;2022-12-07T06:11:32;97372.20;;;5.20
68027;BMP180;54819;48.030;14.710;2022-12-07T06:14:18;97372.00;;;5.20
68027;BMP180;54819;48.030;14.710;2022-12-07T06:16:44;97369.60;;;5.20
68027;BMP180;54819;48.030;14.710;2022-12-07T06:19:11;97374.40;;;5.20
68027;BMP180;54819;48.030;14.710;2022-12-07T06:21:39;97373.00;;;5.20
68027;BMP180;54819;48.030;14.710;2022-12-07T06:24:06;97372.20;;;5.20
68027;BMP180;54819;48.030;14.710;2022-12-07T06:26:33;97374.60;;;5.20
68027;BMP180;54819;48.030;14.710;2022-12-07T06:29:00;97376.40;;;5.20
68027;BMP180;54819;48.030;14.710;2022-12-07T06:31:27;97379.40;;;5.20
68027;BMP180;54819;48.030;14.710;2022-12-07T06:34:03;97385.80;;;5.20
68027;BMP180;54819;48.030;14.710;2022-12-07T06:36:31;97383.80;;;5.20
68027;BMP180;54819;48.030;14.710;2022-12-07T06:38:58;97384.60;;;5.20
68027;BMP180;54819;48.030;14.710;2022-12-07T06:41:25;97382.00;;;5.20
68027;BMP180;54819;48.030;14.710;2022-12-07T06:43:52;97388.60;;;5.20
68027;BMP180;54819;48.030;14.710;2022-12-07T06:46:22;97387.00;;;5.20
68027;BMP180;54819;48.030;14.710;2022-12-07T06:48:50;97384.40;;;5.20
68027;BMP180;54819;48.030;14.710;2022-12-07T06:51:17;97387.60;;;5.28
68027;BMP180;54819;48.030;14.710;2022-12-07T06:53:44;97394.80;;;5.30
68027;BMP180;54819;48.030;14.710;2022-12-07T06:56:10;97396.00;;;5.30
68027;BMP180;54819;48.030;14.710;2022-12-07T06:58:39;97400.00;;;5.30
68027;BMP180;54819;48.030;14.710;2022-12-07T07:01:15;97397.60;;;5.36
68027;BMP180;54819;48.030;14.710;2022-12-07T07:03:45;97401.20;;;5.40
68027;BMP180;54819;48.030;14.710;2022-12-07T07:06:13;97401.20;;;5.40
68027;BMP180;54819;48.030;14.710;2022-12-07T07:08:41;97401.60;;;5.40
68027;BMP180;54819;48.030;14.710;2022-12-07T07:11:09;97405.40;;;5.40
68027;BMP180;54819;48.030;14.710;2022-12-07T07:13:37;97405.80;;;5.40
68027;BMP180;54819;48.030;14.710;2022-12-07T07:16:05;97404.40;;;5.48
68027;BMP180;54819;48.030;14.710;2022-12-07T07:18:32;97402.20;;;5.40
68027;BMP180;54819;48.030;14.710;2022-12-07T07:20:59;97405.40;;;5.40
68027;BMP180;54819;48.030;14.710;2022-12-07T07:23:27;97413.00;;;5.40
68027;BMP180;54819;48.030;14.710;2022-12-07T07:25:54;97410.60;;;5.44
68027;BMP180;54819;48.030;14.710;2022-12-07T07:28:22;97411.40;;;5.40
68027;BMP180;54819;48.030;14.710;2022-12-07T07:30:49;97409.20;;;5.40
68027;BMP180;54819;48.030;14.710;2022-12-07T07:33:16;97414.60;;;5.40
68027;BMP180;54819;48.030;14.710;2022-12-07T07:35:43;97406.20;;;5.50
68027;BMP180;54819;48.030;14.710;2022-12-07T07:38:09;97407.60;;;5.42
68027;BMP180;54819;48.030;14.710;2022-12-07T07:40:36;97413.60;;;5.40
68027;BMP180;54819;48.030;14.710;2022-12-07T07:43:03;97410.00;;;5.44
68027;BMP180;54819;48.030;14.710;2022-12-07T07:45:30;97410.20;;;5.50
68027;BMP180;54819;48.030;14.710;2022-12-07T07:47:57;97412.20;;;5.50
68027;BMP180;54819;48.030;14.710;2022-12-07T07:50:24;97413.20;;;5.50
68027;BMP180;54819;48.030;14.710;2022-12-07T07:52:51;97414.20;;;5.52
68027;BMP180;54819;48.030;14.710;2022-12-07T07:55:18;97420.40;;;5.58
68027;BMP180;54819;48.030;14.710;2022-12-07T07:57:45;97422.00;;;5.60
68027;BMP180;54819;48.030;14.710;2022-12-07T08:00:19;97420.60;;;5.60
68027;BMP180;54819;48.030;14.710;2022-12-07T08:02:46;97425.00;;;5.64
68027;BMP180;54819;48.030;14.710;2022-12-07T08:05:13;97416.60;;;5.70
68027;BMP180;54819;48.030;14.710;2022-12-07T08:07:40;97415.40;;;5.70
68027;BMP180;54819;48.030;14.710;2022-12-07T08:10:12;97420.40;;;5.70
68027;BMP180;54819;48.030;14.710;2022-12-07T08:12:42;97419.40;;;5.74
68027;BMP180;54819;48.030;14.710;2022-12-07T08:15:30;97425.00;;;5.80
68027;BMP180;54819;48.030;14.710;2022-12-07T08:17:58;97422.60;;;5.80
68027;BMP180;54819;48.030;14.710;2022-12-07T08:20:25;97426.20;;;5.80
68027;BMP180;54819;48.030;14.710;2022-12-07T08:22:53;97428.80;;;5.90
68027;BMP180;54819;48.030;14.710;2022-12-07T08:25:21;97428.40;;;5.90
68027;BMP180;54819;48.030;14.710;2022-12-07T08:27:49;97432.20;;;5.94
68027;BMP180;54819;48.030;14.710;2022-12-07T08:30:17;97428.80;;;5.96
68027;BMP180;54819;48.030;14.710;2022-12-07T08:32:45;97439.00;;;6.00
68027;BMP180;54819;48.030;14.710;2022-12-07T08:35:13;97437.40;;;6.02
68027;BMP180;54819;48.030;14.710;2022-12-07T08:37:41;97437.20;;;6.02
68027;BMP180;54819;48.030;14.710;2022-12-07T08:40:10;97439.40;;;6.06
68027;BMP180;54819;48.030;14.710;2022-12-07T08:42:42;97438.00;;;6.10
68027;BMP180;54819;48.030;14.710;2022-12-07T08:45:14;97436.60;;;6.10
68027;BMP180;54819;48.030;14.710;2022-12-07T08:47:55;97436.20;;;6.10
68027;BMP180;54819;48.030;14.710;2022-12-07T08:50:24;97442.20;;;6.18
68027;BMP180;54819;48.030;14.710;2022-12-07T08:52:55;97443.60;;;6.20
68027;BMP180;54819;48.030;14.710;2022-12-07T08:55:23;97446.40;;;6.20
68027;BMP180;54819;48.030;14.710;2022-12-07T08:57:51;97451.00;;;6.28
68027;BMP180;54819;48.030;14.710;2022-12-07T09:00:18;97458.80;;;6.30
68027;BMP180;54819;48.030;14.710;2022-12-07T09:02:46;97453.00;;;6.40
68027;BMP180;54819;48.030;14.710;2022-12-07T09:05:13;97453.20;;;6.50
68027;BMP180;54819;48.030;14.710;2022-12-07T09:07:48;97449.00;;;6.60
68027;BMP180;54819;48.030;14.710;2022-12-07T09:10:18;97446.40;;;6.70
68027;BMP180;54819;48.030;14.710;2022-12-07T09:12:45;97446.00;;;6.70
68027;BMP180;54819;48.030;14.710;2022-12-07T09:15:12;97443.40;;;6.80
68027;BMP180;54819;48.030;14.710;2022-12-07T09:17:39;97440.00;;;6.80
68027;BMP180;54819;48.030;14.710;2022-12-07T09:20:06;97441.60;;;6.90
68027;BMP180;54819;48.030;14.710;2022-12-07T09:22:34;97439.40;;;6.90
68027;BMP180;54819;48.030;14.710;2022-12-07T09:25:02;97435.60;;;7.00
68027;BMP180;54819;48.030;14.710;2022-12-07T09:27:29;97432.20;;;7.06
68027;BMP180;54819;48.030;14.710;2022-12-07T09:29:56;97435.80;;;7.10
68027;BMP180;54819;48.030;14.710;2022-12-07T09:32:23;97432.20;;;7.12
68027;BMP180;54819;48.030;14.710;2022-12-07T09:34:51;97431.80;;;7.18
68027;BMP180;54819;48.030;14.710;2022-12-07T09:37:18;97428.60;;;7.30
68027;BMP180;54819;48.030;14.710;2022-12-07T09:39:45;97423.60;;;7.22
68027;BMP180;54819;48.030;14.710;2022-12-07T09:42:38;97421.80;;;7.30
68027;BMP180;54819;48.030;14.710;2022-12-07T09:45:15;97428.20;;;7.38
68027;BMP180;54819;48.030;14.710;2022-12-07T09:47:44;97427.00;;;7.40
68027;BMP180;54819;48.030;14.710;2022-12-07T09:50:20;97428.20;;;7.42
68027;BMP180;54819;48.030;14.710;2022-12-07T09:52:49;97425.60;;;7.50
68027;BMP180;54819;48.030;14.710;2022-12-07T09:55:25;97421.80;;;7.50
68027;BMP180;54819;48.030;14.710;2022-12-07T09:57:54;97416.40;;;7.50
68027;BMP180;54819;48.030;14.710;2022-12-07T10:00:23;97412.80;;;7.50
68027;BMP180;54819;48.030;14.710;2022-12-07T10:02:58;97410.20;;;7.62
68027;BMP180;54819;48.030;14.710;2022-12-07T10:05:37;97406.00;;;7.60
68027;BMP180;54819;48.030;14.710;2022-12-07T10:08:05;97402.00;;;7.68
68027;BMP180;54819;48.030;14.710;2022-12-07T10:10:34;97400.60;;;7.70
68027;BMP180;54819;48.030;14.710;2022-12-07T10:13:11;97390.40;;;7.78
68027;BMP180;54819;48.030;14.710;2022-12-07T10:15:55;97394.40;;;7.80
68027;BMP180;54819;48.030;14.710;2022-12-07T10:18:40;97392.00;;;7.88
68027;BMP180;54819;48.030;14.710;2022-12-07T10:29:13;97392.40;;;8.06
68027;BMP180;54819;48.030;14.710;2022-12-07T10:31:42;97391.80;;;8.16
68027;BMP180;54819;48.030;14.710;2022-12-07T10:34:33;97394.00;;;8.20
68027;BMP180;54819;48.030;14.710;2022-12-07T10:39:54;97381.20;;;8.20
68027;BMP180;54819;48.030;14.710;2022-12-07T10:42:28;97383.20;;;8.20
68027;BMP180;54819;48.030;14.710;2022-12-07T10:45:15;97378.80;;;8.20
68027;BMP180;54819;48.030;14.710;2022-12-07T11:14:15;97365.80;;;8.36
68027;BMP180;54819;48.030;14.710;2022-12-07T11:19:42;97367.20;;;8.38
68027;BMP180;54819;48.030;14.710;2022-12-07T11:25:15;97364.20;;;8.32
68027;BMP180;54819;48.030;14.710;2022-12-07T11:34:10;97361.40;;;8.30
68027;BMP180;54819;48.030;14.710;2022-12-07T11:36:54;97364.40;;;8.30
68027;BMP180;54819;48.030;14.710;2022-12-07T11:41:57;97356.80;;;8.20
68027;BMP180;54819;48.030;14.710;2022-12-07T11:47:21;97354.60;;;8.22
68027;BMP180;54819;48.030;14.710;2022-12-07T11:50:23;97356.40;;;8.20
68027;BMP180;54819;48.030;14.710;2022-12-07T11:52:58;97356.20;;;8.26
68027;BMP180;54819;48.030;14.710;2022-12-07T12:06:33;97339.40;;;7.80
68027;BMP180;54819;48.030;14.710;2022-12-07T12:09:29;97338.40;;;7.60
68027;BMP180;54819;48.030;14.710;2022-12-07T12:12:31;97341.20;;;7.50
68027;BMP180;54819;48.030;14.710;2022-12-07T12:15:52;97334.00;;;7.38
68027;BMP180;54819;48.030;14.710;2022-12-07T12:18:43;97326.80;;;7.38
68027;BMP180;54819;48.030;14.710;2022-12-07T12:21:19;97330.60;;;7.30
68027;BMP180;54819;48.030;14.710;2022-12-07T12:24:02;97326.60;;;7.30
68027;BMP180;54819;48.030;14.710;2022-12-07T12:26:33;97320.00;;;7.32
68027;BMP180;54819;48.030;14.710;2022-12-07T12:29:06;97318.40;;;7.30
68027;BMP180;54819;48.030;14.710;2022-12-07T12:31:40;97320.60;;;7.30
68027;BMP180;54819;48.030;14.710;2022-12-07T12:45:33;97312.80;;;7.34
68027;BMP180;54819;48.030;14.710;2022-12-07T12:48:35;97319.80;;;7.40
68027;BMP180;54819;48.030;14.710;2022-12-07T12:51:40;97320.00;;;7.52
68027;BMP180;54819;48.030;14.710;2022-12-07T13:02:26;97316.20;;;7.60
68027;BMP180;54819;48.030;14.710;2022-12-07T13:29:11;97304.00;;;7.42
68027;BMP180;54819;48.030;14.710;2022-12-07T13:31:57;97302.60;;;7.40
68027;BMP180;54819;48.030;14.710;2022-12-07T13:34:33;97307.60;;;7.30
68027;BMP180;54819;48.030;14.710;2022-12-07T13:37:26;97307.20;;;7.30
68027;BMP180;54819;48.030;14.710;2022-12-07T13:39:58;97309.00;;;7.30
68027;BMP180;54819;48.030;14.710;2022-12-07T13:42:30;97309.60;;;7.30
68027;BMP180;54819;48.030;14.710;2022-12-07T13:45:00;97316.80;;;7.20
68027;BMP180;54819;48.030;14.710;2022-12-07T13:47:41;97318.80;;;7.20
68027;BMP180;54819;48.030;14.710;2022-12-07T13:50:25;97314.40;;;7.20
68027;BMP180;54819;48.030;14.710;2022-12-07T13:52:59;97316.20;;;7.26
68027;BMP180;54819;48.030;14.710;2022-12-07T13:55:30;97315.40;;;7.24
68027;BMP180;54819;48.030;14.710;2022-12-07T13:57:57;97317.80;;;7.20
68027;BMP180;54819;48.030;14.710;2022-12-07T14:00:27;97324.00;;;7.20
68027;BMP180;54819;48.030;14.710;2022-12-07T14:02:58;97319.00;;;7.14
68027;BMP180;54819;48.030;14.710;2022-12-07T14:10:34;97315.40;;;7.10
68027;BMP180;54819;48.030;14.710;2022-12-07T14:15:51;97322.80;;;7.04
68027;BMP180;54819;48.030;14.710;2022-12-07T14:18:39;97319.40;;;7.00
68027;BMP180;54819;48.030;14.710;2022-12-07T14:23:38;97324.00;;;6.88
68027;BMP180;54819;48.030;14.710;2022-12-07T14:26:15;97325.60;;;6.80
68027;BMP180;54819;48.030;14.710;2022-12-07T14:28:43;97327.80;;;6.74
68027;BMP180;54819;48.030;14.710;2022-12-07T14:31:24;97329.60;;;6.70
68027;BMP180;54819;48.030;14.710;2022-12-07T14:33:59;97327.00;;;6.70
68027;BMP180;54819;48.030;14.710;2022-12-07T14:36:26;97324.00;;;6.60
68027;BMP180;54819;48.030;14.710;2022-12-07T14:38:53;97330.80;;;6.50
68027;BMP180;54819;48.030;14.710;2022-12-07T14:41:23;97329.20;;;6.50
68027;BMP180;54819;48.030;14.710;2022-12-07T14:44:12;97327.40;;;6.40
68027;BMP180;54819;48.030;14.710;2022-12-07T14:46:59;97324.80;;;6.38
68027;BMP180;54819;48.030;14.710;2022-12-07T14:49:46;97319.40;;;6.30
68027;BMP180;54819;48.030;14.710;2022-12-07T14:52:21;97321.40;;;6.20
68027;BMP180;54819;48.030;14.710;2022-12-07T14:55:19;97320.40;;;6.16
68027;BMP180;54819;48.030;14.710;2022-12-07T14:57:47;97320.80;;;6.10
68027;BMP180;54819;48.030;14.710;2022-12-07T15:00:16;97324.40;;;6.00
68027;BMP180;54819;48.030;14.710;2022-12-07T15:02:46;97324.20;;;5.90
68027;BMP180;54819;48.030;14.710;2022-12-07T15:05:13;97323.60;;;5.80
68027;BMP180;54819;48.030;14.710;2022-12-07T15:07:43;97321.20;;;5.70
68027;BMP180;54819;48.030;14.710;2022-12-07T15:10:24;97315.00;;;5.60
68027;BMP180;54819;48.030;14.710;2022-12-07T15:13:01;97318.20;;;5.60
68027;BMP180;54819;48.030;14.710;2022-12-07T15:15:50;97319.60;;;5.50
68027;BMP180;54819;48.030;14.710;2022-12-07T15:18:18;97319.00;;;5.40
68027;BMP180;54819;48.030;14.710;2022-12-07T15:20:47;97319.60;;;5.30
68027;BMP180;54819;48.030;14.710;2022-12-07T15:23:14;97322.20;;;5.20
68027;BMP180;54819;48.030;14.710;2022-12-07T15:25:43;97320.20;;;5.20
68027;BMP180;54819;48.030;14.710;2022-12-07T15:28:10;97317.60;;;5.06
68027;BMP180;54819;48.030;14.710;2022-12-07T15:30:41;97319.60;;;4.90
68027;BMP180;54819;48.030;14.710;2022-12-07T15:33:13;97321.80;;;4.80
68027;BMP180;54819;48.030;14.710;2022-12-07T15:35:44;97319.00;;;4.70
68027;BMP180;54819;48.030;14.710;2022-12-07T15:38:12;97324.80;;;4.68
68027;BMP180;54819;48.030;14.710;2022-12-07T15:40:40;97323.60;;;4.60
68027;BMP180;54819;48.030;14.710;2022-12-07T15:43:10;97320.00;;;4.50
68027;BMP180;54819;48.030;14.710;2022-12-07T15:45:57;97310.80;;;4.50
68027;BMP180;54819;48.030;14.710;2022-12-07T15:48:25;97318.00;;;4.40
68027;BMP180;54819;48.030;14.710;2022-12-07T15:51:06;97312.20;;;4.40
68027;BMP180;54819;48.030;14.710;2022-12-07T15:53:34;97319.20;;;4.34
68027;BMP180;54819;48.030;14.710;2022-12-07T15:56:01;97317.60;;;4.30
68027;BMP180;54819;48.030;14.710;2022-12-07T15:58:32;97317.60;;;4.30
68027;BMP180;54819;48.030;14.710;2022-12-07T16:00:58;97319.00;;;4.20
68027;BMP180;54819;48.030;14.710;2022-12-07T16:03:27;97326.40;;;4.12
68027;BMP180;54819;48.030;14.710;2022-12-07T16:05:54;97325.00;;;4.10
68027;BMP180;54819;48.030;14.710;2022-12-07T16:08:20;97326.80;;;4.10
68027;BMP180;54819;48.030;14.710;2022-12-07T16:10:48;97328.80;;;4.04
68027;BMP180;54819;48.030;14.710;2022-12-07T16:13:15;97325.00;;;4.00
68027;BMP180;54819;48.030;14.710;2022-12-07T16:15:42;97326.60;;;4.00
68027;BMP180;54819;48.030;14.710;2022-12-07T16:18:10;97328.80;;;4.00
68027;BMP180;54819;48.030;14.710;2022-12-07T16:20:37;97332.80;;;4.02
68027;BMP180;54819;48.030;14.710;2022-12-07T16:23:04;97334.60;;;4.10
68027;BMP180;54819;48.030;14.710;2022-12-07T16:25:30;97332.00;;;4.10
68027;BMP180;54819;48.030;14.710;2022-12-07T16:27:57;97327.40;;;4.10
68027;BMP180;54819;48.030;14.710;2022-12-07T16:30:24;97325.20;;;4.10
68027;BMP180;54819;48.030;14.710;2022-12-07T16:32:51;97323.20;;;4.10
68027;BMP180;54819;48.030;14.710;2022-12-07T16:35:23;97323.80;;;4.10
68027;BMP180;54819;48.030;14.710;2022-12-07T16:37:50;97326.80;;;4.20
68027;BMP180;54819;48.030;14.710;2022-12-07T16:40:17;97322.60;;;4.20
68027;BMP180;54819;48.030;14.710;2022-12-07T16:42:43;97321.20;;;4.20
68027;BMP180;54819;48.030;14.710;2022-12-07T16:45:10;97327.20;;;4.20
68027;BMP180;54819;48.030;14.710;2022-12-07T16:47:43;97322.40;;;4.20
68027;BMP180;54819;48.030;14.710;2022-12-07T16:50:10;97321.60;;;4.20
68027;BMP180;54819;48.030;14.710;2022-12-07T16:52:37;97324.80;;;4.20
68027;BMP180;54819;48.030;14.710;2022-12-07T16:55:04;97323.20;;;4.20
68027;BMP180;54819;48.030;14.710;2022-12-07T16:57:31;97323.20;;;4.20
68027;BMP180;54819;48.030;14.710;2022-12-07T16:59:58;97322.40;;;4.20
68027;BMP180;54819;48.030;14.710;2022-12-07T17:02:25;97318.80;;;4.20